モロニ の空港の天気 - METARとTAF

プリンス・サイード・イブラヒーム国際空港 ( FMCH / HAH ) - コモロ モロニ
飛行場実況気象(Metar)
観測時間-
風向・風速- -
視程-
天気現象-
-
気温-
湿度-
気圧-
METAR-
過去の天気等 Google飛行場航空写真 Wunderground天気予報

過去48時間のMETAR

飛行場予報(TAF)
発表時間: -
1日7時 EAT ~ 1日10時 EAT に徐々に
風向・風速北北西 6m/s
1日13時 EAT ~ 1日18時 EAT に 確率 30% で一時的に
視程4000m
天気現象しゅう雨
1日19時 EAT ~ 1日21時 EAT に徐々に
風向・風速東 2m/s
TAF
FMCH 301700Z 3018/0124 12004KT 9999 FEW020
BECMG 0104/0107 33012KT
PROB30 TEMPO 0110/0115 4000 SHRA
BECMG 0116/0118 10004KT